sensor_id;sensor_type;location;lat;lon;timestamp;P1;durP1;ratioP1;P2;durP2;ratioP2
25870;SDS011;13689;48.590;7.752;2023-01-30T00:02:14;21.50;;;8.67;;
25870;SDS011;13689;48.590;7.752;2023-01-30T00:04:39;24.15;;;11.48;;
25870;SDS011;13689;48.590;7.752;2023-01-30T00:07:05;27.80;;;11.45;;
25870;SDS011;13689;48.590;7.752;2023-01-30T00:09:30;26.48;;;11.82;;
25870;SDS011;13689;48.590;7.752;2023-01-30T00:11:56;24.17;;;11.80;;
25870;SDS011;13689;48.590;7.752;2023-01-30T00:14:22;26.67;;;11.35;;
25870;SDS011;13689;48.590;7.752;2023-01-30T00:16:47;29.73;;;11.82;;
25870;SDS011;13689;48.590;7.752;2023-01-30T00:19:13;28.27;;;11.65;;
25870;SDS011;13689;48.590;7.752;2023-01-30T00:21:38;24.60;;;11.60;;
25870;SDS011;13689;48.590;7.752;2023-01-30T00:24:04;26.60;;;11.68;;
25870;SDS011;13689;48.590;7.752;2023-01-30T00:26:30;29.05;;;12.23;;
25870;SDS011;13689;48.590;7.752;2023-01-30T00:28:55;22.33;;;9.85;;
25870;SDS011;13689;48.590;7.752;2023-01-30T00:31:21;26.20;;;10.90;;
25870;SDS011;13689;48.590;7.752;2023-01-30T00:33:47;27.10;;;12.80;;
25870;SDS011;13689;48.590;7.752;2023-01-30T00:36:12;28.10;;;12.68;;
25870;SDS011;13689;48.590;7.752;2023-01-30T00:38:38;27.08;;;12.15;;
25870;SDS011;13689;48.590;7.752;2023-01-30T00:41:03;26.20;;;12.60;;
25870;SDS011;13689;48.590;7.752;2023-01-30T00:43:29;31.90;;;12.85;;
25870;SDS011;13689;48.590;7.752;2023-01-30T00:46:32;27.95;;;12.07;;
25870;SDS011;13689;48.590;7.752;2023-01-30T00:49:17;26.98;;;12.55;;
25870;SDS011;13689;48.590;7.752;2023-01-30T00:51:43;22.77;;;11.20;;
25870;SDS011;13689;48.590;7.752;2023-01-30T00:54:09;28.77;;;11.95;;
25870;SDS011;13689;48.590;7.752;2023-01-30T00:56:34;28.98;;;12.30;;
25870;SDS011;13689;48.590;7.752;2023-01-30T00:59:00;29.98;;;12.90;;
25870;SDS011;13689;48.590;7.752;2023-01-30T01:01:26;28.05;;;11.63;;
25870;SDS011;13689;48.590;7.752;2023-01-30T01:03:52;26.73;;;11.98;;
25870;SDS011;13689;48.590;7.752;2023-01-30T01:06:17;29.15;;;12.85;;
25870;SDS011;13689;48.590;7.752;2023-01-30T01:08:43;25.25;;;12.10;;
25870;SDS011;13689;48.590;7.752;2023-01-30T01:11:08;28.15;;;12.57;;
25870;SDS011;13689;48.590;7.752;2023-01-30T01:13:34;32.28;;;13.13;;
25870;SDS011;13689;48.590;7.752;2023-01-30T01:16:00;30.98;;;13.77;;
25870;SDS011;13689;48.590;7.752;2023-01-30T01:18:25;27.20;;;12.60;;
25870;SDS011;13689;48.590;7.752;2023-01-30T01:20:51;32.60;;;13.45;;
25870;SDS011;13689;48.590;7.752;2023-01-30T01:23:17;31.98;;;13.43;;
25870;SDS011;13689;48.590;7.752;2023-01-30T01:25:42;29.98;;;13.45;;
25870;SDS011;13689;48.590;7.752;2023-01-30T01:28:08;34.42;;;14.70;;
25870;SDS011;13689;48.590;7.752;2023-01-30T01:30:34;34.22;;;14.77;;
25870;SDS011;13689;48.590;7.752;2023-01-30T01:32:59;34.05;;;15.20;;
25870;SDS011;13689;48.590;7.752;2023-01-30T01:35:25;28.20;;;14.02;;
25870;SDS011;13689;48.590;7.752;2023-01-30T01:37:53;36.17;;;14.75;;
25870;SDS011;13689;48.590;7.752;2023-01-30T01:40:20;33.20;;;13.82;;
25870;SDS011;13689;48.590;7.752;2023-01-30T01:43:24;32.70;;;14.93;;
25870;SDS011;13689;48.590;7.752;2023-01-30T01:48:48;28.73;;;13.52;;
25870;SDS011;13689;48.590;7.752;2023-01-30T01:51:33;27.83;;;12.70;;
25870;SDS011;13689;48.590;7.752;2023-01-30T01:54:02;30.80;;;13.70;;
25870;SDS011;13689;48.590;7.752;2023-01-30T01:56:33;29.83;;;13.77;;
25870;SDS011;13689;48.590;7.752;2023-01-30T01:59:04;31.10;;;13.52;;
25870;SDS011;13689;48.590;7.752;2023-01-30T02:01:43;31.95;;;13.18;;
25870;SDS011;13689;48.590;7.752;2023-01-30T02:04:09;29.33;;;13.10;;
25870;SDS011;13689;48.590;7.752;2023-01-30T02:06:36;26.60;;;12.93;;
25870;SDS011;13689;48.590;7.752;2023-01-30T02:09:06;26.63;;;11.73;;
25870;SDS011;13689;48.590;7.752;2023-01-30T02:11:46;32.00;;;13.05;;
25870;SDS011;13689;48.590;7.752;2023-01-30T02:14:18;26.08;;;11.48;;
25870;SDS011;13689;48.590;7.752;2023-01-30T02:16:45;26.55;;;11.63;;
25870;SDS011;13689;48.590;7.752;2023-01-30T02:19:25;26.77;;;11.38;;
25870;SDS011;13689;48.590;7.752;2023-01-30T02:41:47;24.65;;;10.35;;
25870;SDS011;13689;48.590;7.752;2023-01-30T02:49:36;20.27;;;7.72;;
25870;SDS011;13689;48.590;7.752;2023-01-30T02:52:04;12.68;;;5.57;;
25870;SDS011;13689;48.590;7.752;2023-01-30T02:54:32;18.77;;;9.02;;
25870;SDS011;13689;48.590;7.752;2023-01-30T02:56:58;20.30;;;9.15;;
25870;SDS011;13689;48.590;7.752;2023-01-30T03:02:12;19.73;;;9.20;;
25870;SDS011;13689;48.590;7.752;2023-01-30T03:10:30;19.63;;;8.98;;
25870;SDS011;13689;48.590;7.752;2023-01-30T03:13:22;17.08;;;9.63;;
25870;SDS011;13689;48.590;7.752;2023-01-30T03:15:58;20.55;;;9.00;;
25870;SDS011;13689;48.590;7.752;2023-01-30T03:18:30;22.98;;;10.68;;
25870;SDS011;13689;48.590;7.752;2023-01-30T03:20:56;25.08;;;10.05;;
25870;SDS011;13689;48.590;7.752;2023-01-30T03:23:31;21.70;;;10.00;;
25870;SDS011;13689;48.590;7.752;2023-01-30T03:25:56;20.50;;;9.18;;
25870;SDS011;13689;48.590;7.752;2023-01-30T03:28:23;19.65;;;9.13;;
25870;SDS011;13689;48.590;7.752;2023-01-30T03:30:50;22.38;;;10.32;;
25870;SDS011;13689;48.590;7.752;2023-01-30T03:33:16;21.02;;;9.35;;
25870;SDS011;13689;48.590;7.752;2023-01-30T03:35:41;25.15;;;12.77;;
25870;SDS011;13689;48.590;7.752;2023-01-30T03:38:11;26.73;;;11.48;;
25870;SDS011;13689;48.590;7.752;2023-01-30T03:40:37;16.98;;;8.07;;
25870;SDS011;13689;48.590;7.752;2023-01-30T03:43:03;22.35;;;10.40;;
25870;SDS011;13689;48.590;7.752;2023-01-30T03:45:29;22.00;;;9.23;;
25870;SDS011;13689;48.590;7.752;2023-01-30T03:47:54;15.82;;;6.35;;
25870;SDS011;13689;48.590;7.752;2023-01-30T03:50:20;12.15;;;5.75;;
25870;SDS011;13689;48.590;7.752;2023-01-30T03:52:45;14.82;;;7.60;;
25870;SDS011;13689;48.590;7.752;2023-01-30T03:55:11;13.00;;;4.88;;
25870;SDS011;13689;48.590;7.752;2023-01-30T03:57:37;17.60;;;8.23;;
25870;SDS011;13689;48.590;7.752;2023-01-30T04:00:02;10.35;;;4.95;;
25870;SDS011;13689;48.590;7.752;2023-01-30T04:02:28;6.70;;;3.53;;
25870;SDS011;13689;48.590;7.752;2023-01-30T04:04:54;7.18;;;3.78;;
25870;SDS011;13689;48.590;7.752;2023-01-30T04:07:20;20.00;;;8.38;;
25870;SDS011;13689;48.590;7.752;2023-01-30T04:09:45;8.48;;;3.72;;
25870;SDS011;13689;48.590;7.752;2023-01-30T04:12:11;2.95;;;1.95;;
25870;SDS011;13689;48.590;7.752;2023-01-30T04:14:37;19.52;;;8.48;;
25870;SDS011;13689;48.590;7.752;2023-01-30T04:17:02;7.57;;;3.85;;
25870;SDS011;13689;48.590;7.752;2023-01-30T04:19:28;19.92;;;8.07;;
25870;SDS011;13689;48.590;7.752;2023-01-30T04:21:54;16.23;;;7.20;;
25870;SDS011;13689;48.590;7.752;2023-01-30T04:24:19;19.70;;;7.45;;
25870;SDS011;13689;48.590;7.752;2023-01-30T04:26:45;14.65;;;7.45;;
25870;SDS011;13689;48.590;7.752;2023-01-30T04:29:10;8.68;;;2.75;;
25870;SDS011;13689;48.590;7.752;2023-01-30T04:31:36;9.48;;;3.95;;
25870;SDS011;13689;48.590;7.752;2023-01-30T04:34:01;12.55;;;6.00;;
25870;SDS011;13689;48.590;7.752;2023-01-30T04:36:27;6.15;;;3.40;;
25870;SDS011;13689;48.590;7.752;2023-01-30T04:38:53;9.02;;;4.43;;
25870;SDS011;13689;48.590;7.752;2023-01-30T04:41:19;11.98;;;5.63;;
25870;SDS011;13689;48.590;7.752;2023-01-30T04:43:44;10.55;;;4.75;;
25870;SDS011;13689;48.590;7.752;2023-01-30T04:46:10;7.13;;;3.75;;
25870;SDS011;13689;48.590;7.752;2023-01-30T04:48:35;8.23;;;3.30;;
25870;SDS011;13689;48.590;7.752;2023-01-30T04:51:01;11.60;;;5.65;;
25870;SDS011;13689;48.590;7.752;2023-01-30T04:53:27;18.25;;;7.38;;
25870;SDS011;13689;48.590;7.752;2023-01-30T04:55:52;14.32;;;5.78;;
25870;SDS011;13689;48.590;7.752;2023-01-30T04:58:18;6.72;;;4.47;;
25870;SDS011;13689;48.590;7.752;2023-01-30T05:00:44;13.40;;;6.40;;
25870;SDS011;13689;48.590;7.752;2023-01-30T05:03:10;10.25;;;4.90;;
25870;SDS011;13689;48.590;7.752;2023-01-30T05:05:35;18.27;;;8.52;;
25870;SDS011;13689;48.590;7.752;2023-01-30T05:08:01;14.73;;;6.22;;
25870;SDS011;13689;48.590;7.752;2023-01-30T05:10:27;15.50;;;5.88;;
25870;SDS011;13689;48.590;7.752;2023-01-30T05:12:52;3.83;;;2.38;;
25870;SDS011;13689;48.590;7.752;2023-01-30T05:15:18;6.38;;;3.20;;
25870;SDS011;13689;48.590;7.752;2023-01-30T05:17:43;19.70;;;9.38;;
25870;SDS011;13689;48.590;7.752;2023-01-30T05:20:09;13.32;;;7.13;;
25870;SDS011;13689;48.590;7.752;2023-01-30T05:22:36;22.10;;;9.23;;
25870;SDS011;13689;48.590;7.752;2023-01-30T05:25:02;13.75;;;6.78;;
25870;SDS011;13689;48.590;7.752;2023-01-30T05:27:27;12.60;;;6.72;;
25870;SDS011;13689;48.590;7.752;2023-01-30T05:29:53;18.98;;;7.80;;
25870;SDS011;13689;48.590;7.752;2023-01-30T05:32:19;7.65;;;4.45;;
25870;SDS011;13689;48.590;7.752;2023-01-30T05:34:45;10.18;;;4.55;;
25870;SDS011;13689;48.590;7.752;2023-01-30T05:37:13;16.05;;;7.22;;
25870;SDS011;13689;48.590;7.752;2023-01-30T05:39:39;13.63;;;7.10;;
25870;SDS011;13689;48.590;7.752;2023-01-30T05:42:04;11.90;;;5.78;;
25870;SDS011;13689;48.590;7.752;2023-01-30T05:44:30;12.63;;;4.22;;
25870;SDS011;13689;48.590;7.752;2023-01-30T05:46:56;20.70;;;9.25;;
25870;SDS011;13689;48.590;7.752;2023-01-30T05:49:22;11.00;;;5.28;;
25870;SDS011;13689;48.590;7.752;2023-01-30T05:51:48;14.00;;;5.35;;
25870;SDS011;13689;48.590;7.752;2023-01-30T05:54:13;17.88;;;7.97;;
25870;SDS011;13689;48.590;7.752;2023-01-30T05:56:39;21.20;;;8.35;;
25870;SDS011;13689;48.590;7.752;2023-01-30T05:59:05;20.27;;;9.20;;
25870;SDS011;13689;48.590;7.752;2023-01-30T06:01:30;12.75;;;6.18;;
25870;SDS011;13689;48.590;7.752;2023-01-30T06:03:56;11.90;;;5.38;;
25870;SDS011;13689;48.590;7.752;2023-01-30T06:06:23;18.13;;;6.93;;
25870;SDS011;13689;48.590;7.752;2023-01-30T06:08:53;15.27;;;7.32;;
25870;SDS011;13689;48.590;7.752;2023-01-30T06:11:19;15.05;;;7.40;;
25870;SDS011;13689;48.590;7.752;2023-01-30T06:13:45;18.15;;;8.73;;
25870;SDS011;13689;48.590;7.752;2023-01-30T06:16:12;9.77;;;4.18;;
25870;SDS011;13689;48.590;7.752;2023-01-30T06:18:38;6.43;;;3.58;;
25870;SDS011;13689;48.590;7.752;2023-01-30T06:21:04;11.38;;;4.78;;
25870;SDS011;13689;48.590;7.752;2023-01-30T06:23:31;19.23;;;8.55;;
25870;SDS011;13689;48.590;7.752;2023-01-30T06:25:57;13.07;;;6.72;;
25870;SDS011;13689;48.590;7.752;2023-01-30T06:28:23;19.27;;;8.57;;
25870;SDS011;13689;48.590;7.752;2023-01-30T06:30:50;13.95;;;6.20;;
25870;SDS011;13689;48.590;7.752;2023-01-30T06:33:15;18.23;;;8.18;;
25870;SDS011;13689;48.590;7.752;2023-01-30T06:35:42;22.48;;;8.82;;
25870;SDS011;13689;48.590;7.752;2023-01-30T06:38:08;17.80;;;6.78;;
25870;SDS011;13689;48.590;7.752;2023-01-30T06:40:39;6.27;;;3.03;;
25870;SDS011;13689;48.590;7.752;2023-01-30T06:43:05;21.88;;;8.80;;
25870;SDS011;13689;48.590;7.752;2023-01-30T06:45:31;23.90;;;9.55;;
25870;SDS011;13689;48.590;7.752;2023-01-30T06:47:57;13.30;;;6.63;;
25870;SDS011;13689;48.590;7.752;2023-01-30T06:50:24;23.75;;;9.77;;
25870;SDS011;13689;48.590;7.752;2023-01-30T06:52:51;11.85;;;4.97;;
25870;SDS011;13689;48.590;7.752;2023-01-30T06:55:20;16.50;;;8.13;;
25870;SDS011;13689;48.590;7.752;2023-01-30T06:57:48;21.45;;;8.43;;
25870;SDS011;13689;48.590;7.752;2023-01-30T07:00:17;15.95;;;7.15;;
25870;SDS011;13689;48.590;7.752;2023-01-30T07:02:44;21.73;;;8.68;;
25870;SDS011;13689;48.590;7.752;2023-01-30T07:05:10;14.45;;;7.07;;
25870;SDS011;13689;48.590;7.752;2023-01-30T07:07:37;21.08;;;8.68;;
25870;SDS011;13689;48.590;7.752;2023-01-30T07:10:03;14.82;;;6.65;;
25870;SDS011;13689;48.590;7.752;2023-01-30T07:12:30;17.48;;;7.63;;
25870;SDS011;13689;48.590;7.752;2023-01-30T07:14:55;21.67;;;11.30;;
25870;SDS011;13689;48.590;7.752;2023-01-30T07:17:21;19.38;;;8.23;;
25870;SDS011;13689;48.590;7.752;2023-01-30T07:19:47;19.33;;;7.50;;
25870;SDS011;13689;48.590;7.752;2023-01-30T07:22:15;17.92;;;7.80;;
25870;SDS011;13689;48.590;7.752;2023-01-30T07:24:41;11.15;;;5.68;;
25870;SDS011;13689;48.590;7.752;2023-01-30T07:27:08;22.30;;;9.50;;
25870;SDS011;13689;48.590;7.752;2023-01-30T07:29:41;8.73;;;4.75;;
25870;SDS011;13689;48.590;7.752;2023-01-30T07:32:08;16.23;;;7.85;;
25870;SDS011;13689;48.590;7.752;2023-01-30T07:34:40;12.63;;;6.82;;
25870;SDS011;13689;48.590;7.752;2023-01-30T07:37:06;15.93;;;7.82;;
25870;SDS011;13689;48.590;7.752;2023-01-30T07:39:32;18.77;;;8.55;;
25870;SDS011;13689;48.590;7.752;2023-01-30T07:41:59;22.02;;;8.75;;
25870;SDS011;13689;48.590;7.752;2023-01-30T07:44:25;8.75;;;4.47;;
25870;SDS011;13689;48.590;7.752;2023-01-30T07:46:50;10.93;;;4.55;;
25870;SDS011;13689;48.590;7.752;2023-01-30T07:49:16;17.75;;;5.40;;
25870;SDS011;13689;48.590;7.752;2023-01-30T07:51:42;14.13;;;6.93;;
25870;SDS011;13689;48.590;7.752;2023-01-30T07:54:07;11.93;;;5.75;;
25870;SDS011;13689;48.590;7.752;2023-01-30T07:56:33;16.58;;;6.97;;
25870;SDS011;13689;48.590;7.752;2023-01-30T07:58:59;19.00;;;8.35;;
25870;SDS011;13689;48.590;7.752;2023-01-30T08:01:26;9.90;;;4.68;;
25870;SDS011;13689;48.590;7.752;2023-01-30T08:03:51;9.60;;;5.05;;
25870;SDS011;13689;48.590;7.752;2023-01-30T08:06:17;22.00;;;10.68;;
25870;SDS011;13689;48.590;7.752;2023-01-30T08:08:43;11.10;;;5.43;;
25870;SDS011;13689;48.590;7.752;2023-01-30T08:11:09;20.33;;;8.38;;
25870;SDS011;13689;48.590;7.752;2023-01-30T08:13:35;15.70;;;6.57;;
25870;SDS011;13689;48.590;7.752;2023-01-30T08:16:01;19.10;;;9.32;;
25870;SDS011;13689;48.590;7.752;2023-01-30T08:18:27;4.88;;;2.50;;
25870;SDS011;13689;48.590;7.752;2023-01-30T08:21:01;24.98;;;10.45;;
25870;SDS011;13689;48.590;7.752;2023-01-30T08:23:28;16.60;;;6.95;;
25870;SDS011;13689;48.590;7.752;2023-01-30T08:25:55;16.55;;;6.93;;
25870;SDS011;13689;48.590;7.752;2023-01-30T08:28:22;8.83;;;3.93;;
25870;SDS011;13689;48.590;7.752;2023-01-30T08:30:48;12.82;;;4.65;;
25870;SDS011;13689;48.590;7.752;2023-01-30T08:35:42;15.02;;;6.40;;
25870;SDS011;13689;48.590;7.752;2023-01-30T08:38:07;19.83;;;7.45;;
25870;SDS011;13689;48.590;7.752;2023-01-30T08:40:33;20.48;;;8.15;;
25870;SDS011;13689;48.590;7.752;2023-01-30T08:42:59;22.40;;;9.73;;
25870;SDS011;13689;48.590;7.752;2023-01-30T08:45:25;18.80;;;7.80;;
25870;SDS011;13689;48.590;7.752;2023-01-30T08:47:50;19.48;;;8.68;;
25870;SDS011;13689;48.590;7.752;2023-01-30T08:50:16;19.52;;;8.70;;
25870;SDS011;13689;48.590;7.752;2023-01-30T08:52:42;24.63;;;9.32;;
25870;SDS011;13689;48.590;7.752;2023-01-30T08:55:07;8.05;;;4.28;;
25870;SDS011;13689;48.590;7.752;2023-01-30T08:57:34;14.85;;;6.90;;
25870;SDS011;13689;48.590;7.752;2023-01-30T09:00:00;17.15;;;7.30;;
25870;SDS011;13689;48.590;7.752;2023-01-30T09:02:26;8.38;;;3.78;;
25870;SDS011;13689;48.590;7.752;2023-01-30T09:04:52;7.05;;;3.25;;
25870;SDS011;13689;48.590;7.752;2023-01-30T09:07:17;19.00;;;7.93;;
25870;SDS011;13689;48.590;7.752;2023-01-30T09:09:43;7.53;;;3.67;;
25870;SDS011;13689;48.590;7.752;2023-01-30T09:12:09;20.70;;;7.95;;
25870;SDS011;13689;48.590;7.752;2023-01-30T09:14:34;22.77;;;9.20;;
25870;SDS011;13689;48.590;7.752;2023-01-30T09:17:01;19.58;;;7.32;;
25870;SDS011;13689;48.590;7.752;2023-01-30T09:19:27;18.70;;;8.27;;
25870;SDS011;13689;48.590;7.752;2023-01-30T09:21:53;9.57;;;4.25;;
25870;SDS011;13689;48.590;7.752;2023-01-30T09:24:20;22.92;;;8.38;;
25870;SDS011;13689;48.590;7.752;2023-01-30T09:26:51;18.60;;;6.68;;
25870;SDS011;13689;48.590;7.752;2023-01-30T09:29:17;25.77;;;10.95;;
25870;SDS011;13689;48.590;7.752;2023-01-30T09:31:43;22.38;;;8.55;;
25870;SDS011;13689;48.590;7.752;2023-01-30T09:34:08;17.63;;;6.80;;
25870;SDS011;13689;48.590;7.752;2023-01-30T09:36:34;21.98;;;8.50;;
25870;SDS011;13689;48.590;7.752;2023-01-30T09:38:59;11.15;;;5.55;;
25870;SDS011;13689;48.590;7.752;2023-01-30T09:55:31;18.02;;;6.85;;
25870;SDS011;13689;48.590;7.752;2023-01-30T09:58:01;15.70;;;6.72;;
25870;SDS011;13689;48.590;7.752;2023-01-30T10:00:37;19.88;;;8.82;;
25870;SDS011;13689;48.590;7.752;2023-01-30T10:03:13;11.07;;;5.22;;
25870;SDS011;13689;48.590;7.752;2023-01-30T10:05:50;20.38;;;8.45;;
25870;SDS011;13689;48.590;7.752;2023-01-30T10:10:48;18.58;;;8.27;;
25870;SDS011;13689;48.590;7.752;2023-01-30T10:13:32;21.57;;;9.40;;
25870;SDS011;13689;48.590;7.752;2023-01-30T10:16:08;18.73;;;7.90;;
25870;SDS011;13689;48.590;7.752;2023-01-30T10:21:36;13.05;;;5.93;;
25870;SDS011;13689;48.590;7.752;2023-01-30T10:27:15;13.65;;;6.57;;
25870;SDS011;13689;48.590;7.752;2023-01-30T10:29:48;13.48;;;5.75;;
25870;SDS011;13689;48.590;7.752;2023-01-30T10:32:19;5.93;;;2.78;;
25870;SDS011;13689;48.590;7.752;2023-01-30T10:34:57;16.92;;;6.20;;
25870;SDS011;13689;48.590;7.752;2023-01-30T10:37:31;19.25;;;8.40;;
25870;SDS011;13689;48.590;7.752;2023-01-30T10:43:08;20.38;;;8.20;;
25870;SDS011;13689;48.590;7.752;2023-01-30T10:48:32;20.48;;;9.05;;
25870;SDS011;13689;48.590;7.752;2023-01-30T10:51:17;14.80;;;6.60;;
25870;SDS011;13689;48.590;7.752;2023-01-30T10:56:41;22.30;;;10.15;;
25870;SDS011;13689;48.590;7.752;2023-01-30T11:05:12;19.08;;;8.15;;
25870;SDS011;13689;48.590;7.752;2023-01-30T11:07:42;12.43;;;4.78;;
25870;SDS011;13689;48.590;7.752;2023-01-30T11:10:17;12.73;;;5.35;;
25870;SDS011;13689;48.590;7.752;2023-01-30T11:12:45;11.43;;;3.53;;
25870;SDS011;13689;48.590;7.752;2023-01-30T11:15:10;19.80;;;7.55;;
25870;SDS011;13689;48.590;7.752;2023-01-30T11:17:39;14.82;;;7.43;;
25870;SDS011;13689;48.590;7.752;2023-01-30T11:20:16;18.83;;;8.10;;
25870;SDS011;13689;48.590;7.752;2023-01-30T11:22:47;5.53;;;2.53;;
25870;SDS011;13689;48.590;7.752;2023-01-30T11:25:47;12.00;;;5.97;;
25870;SDS011;13689;48.590;7.752;2023-01-30T11:28:14;10.18;;;4.75;;
25870;SDS011;13689;48.590;7.752;2023-01-30T11:30:41;12.15;;;5.82;;
25870;SDS011;13689;48.590;7.752;2023-01-30T11:33:14;11.13;;;5.28;;
25870;SDS011;13689;48.590;7.752;2023-01-30T11:35:52;13.77;;;6.32;;
25870;SDS011;13689;48.590;7.752;2023-01-30T11:38:24;17.13;;;7.53;;
25870;SDS011;13689;48.590;7.752;2023-01-30T11:41:02;15.60;;;7.45;;
25870;SDS011;13689;48.590;7.752;2023-01-30T11:43:31;13.98;;;5.80;;
25870;SDS011;13689;48.590;7.752;2023-01-30T11:48:28;11.43;;;5.75;;
25870;SDS011;13689;48.590;7.752;2023-01-30T11:51:00;13.27;;;6.32;;
25870;SDS011;13689;48.590;7.752;2023-01-30T11:53:33;12.23;;;5.22;;
25870;SDS011;13689;48.590;7.752;2023-01-30T11:56:11;12.52;;;6.70;;
25870;SDS011;13689;48.590;7.752;2023-01-30T11:59:09;14.00;;;6.45;;
25870;SDS011;13689;48.590;7.752;2023-01-30T12:01:43;10.95;;;5.38;;
25870;SDS011;13689;48.590;7.752;2023-01-30T12:04:10;16.45;;;6.13;;
25870;SDS011;13689;48.590;7.752;2023-01-30T12:06:37;14.55;;;6.85;;
25870;SDS011;13689;48.590;7.752;2023-01-30T12:09:06;14.02;;;7.07;;
25870;SDS011;13689;48.590;7.752;2023-01-30T12:11:59;15.48;;;5.72;;
25870;SDS011;13689;48.590;7.752;2023-01-30T12:20:00;14.27;;;6.25;;
25870;SDS011;13689;48.590;7.752;2023-01-30T12:27:57;15.57;;;6.40;;
25870;SDS011;13689;48.590;7.752;2023-01-30T12:31:29;7.13;;;3.25;;
25870;SDS011;13689;48.590;7.752;2023-01-30T12:33:28;7.47;;;4.13;;
25870;SDS011;13689;48.590;7.752;2023-01-30T12:39:29;13.07;;;6.07;;
25870;SDS011;13689;48.590;7.752;2023-01-30T12:42:17;5.30;;;2.80;;
25870;SDS011;13689;48.590;7.752;2023-01-30T12:58:28;13.90;;;4.53;;
25870;SDS011;13689;48.590;7.752;2023-01-30T13:04:05;14.35;;;5.72;;
25870;SDS011;13689;48.590;7.752;2023-01-30T13:06:44;12.00;;;6.35;;
25870;SDS011;13689;48.590;7.752;2023-01-30T13:14:55;19.25;;;5.18;;
25870;SDS011;13689;48.590;7.752;2023-01-30T13:23:03;14.30;;;2.78;;
25870;SDS011;13689;48.590;7.752;2023-01-30T13:25:45;10.55;;;5.00;;
25870;SDS011;13689;48.590;7.752;2023-01-30T13:28:36;8.05;;;3.40;;
25870;SDS011;13689;48.590;7.752;2023-01-30T13:31:21;13.45;;;4.95;;
25870;SDS011;13689;48.590;7.752;2023-01-30T13:36:48;10.98;;;4.75;;
25870;SDS011;13689;48.590;7.752;2023-01-30T13:39:22;11.38;;;5.70;;
25870;SDS011;13689;48.590;7.752;2023-01-30T13:41:57;8.55;;;4.07;;
25870;SDS011;13689;48.590;7.752;2023-01-30T13:44:26;9.93;;;4.32;;
25870;SDS011;13689;48.590;7.752;2023-01-30T13:46:58;8.73;;;3.72;;
25870;SDS011;13689;48.590;7.752;2023-01-30T13:50:18;11.20;;;5.22;;
25870;SDS011;13689;48.590;7.752;2023-01-30T13:52:45;13.18;;;5.63;;
25870;SDS011;13689;48.590;7.752;2023-01-30T14:01:02;11.52;;;5.25;;
25870;SDS011;13689;48.590;7.752;2023-01-30T14:03:29;10.32;;;4.40;;
25870;SDS011;13689;48.590;7.752;2023-01-30T14:12:13;11.88;;;4.95;;
25870;SDS011;13689;48.590;7.752;2023-01-30T14:14:27;10.23;;;5.13;;
25870;SDS011;13689;48.590;7.752;2023-01-30T14:17:16;11.02;;;5.30;;
25870;SDS011;13689;48.590;7.752;2023-01-30T14:19:43;14.27;;;6.32;;
25870;SDS011;13689;48.590;7.752;2023-01-30T14:27:53;11.60;;;4.82;;
25870;SDS011;13689;48.590;7.752;2023-01-30T14:38:27;11.18;;;4.70;;
25870;SDS011;13689;48.590;7.752;2023-01-30T14:59:03;14.95;;;5.75;;
25870;SDS011;13689;48.590;7.752;2023-01-30T15:07:04;9.50;;;4.55;;
25870;SDS011;13689;48.590;7.752;2023-01-30T15:09:34;12.73;;;4.93;;
25870;SDS011;13689;48.590;7.752;2023-01-30T15:12:09;13.65;;;5.68;;
25870;SDS011;13689;48.590;7.752;2023-01-30T15:14:45;9.68;;;4.78;;
25870;SDS011;13689;48.590;7.752;2023-01-30T15:17:37;9.75;;;4.18;;
25870;SDS011;13689;48.590;7.752;2023-01-30T15:22:52;10.02;;;5.07;;
25870;SDS011;13689;48.590;7.752;2023-01-30T15:31:16;8.10;;;4.50;;
25870;SDS011;13689;48.590;7.752;2023-01-30T15:33:45;7.50;;;4.00;;
25870;SDS011;13689;48.590;7.752;2023-01-30T15:36:22;8.93;;;4.47;;
25870;SDS011;13689;48.590;7.752;2023-01-30T15:39:14;10.52;;;4.47;;
25870;SDS011;13689;48.590;7.752;2023-01-30T15:41:44;10.65;;;5.15;;
25870;SDS011;13689;48.590;7.752;2023-01-30T15:52:03;12.02;;;4.18;;
25870;SDS011;13689;48.590;7.752;2023-01-30T15:54:31;6.55;;;4.03;;
25870;SDS011;13689;48.590;7.752;2023-01-30T15:56:57;13.88;;;4.68;;
25870;SDS011;13689;48.590;7.752;2023-01-30T15:59:26;8.88;;;4.03;;
25870;SDS011;13689;48.590;7.752;2023-01-30T16:01:59;14.77;;;4.72;;
25870;SDS011;13689;48.590;7.752;2023-01-30T16:04:48;9.68;;;3.80;;
25870;SDS011;13689;48.590;7.752;2023-01-30T16:07:26;6.18;;;2.88;;
25870;SDS011;13689;48.590;7.752;2023-01-30T16:09:55;7.28;;;3.83;;
25870;SDS011;13689;48.590;7.752;2023-01-30T16:12:25;7.90;;;3.55;;
25870;SDS011;13689;48.590;7.752;2023-01-30T16:14:51;12.27;;;4.72;;
25870;SDS011;13689;48.590;7.752;2023-01-30T16:17:22;9.70;;;4.82;;
25870;SDS011;13689;48.590;7.752;2023-01-30T16:19:51;8.55;;;4.45;;
25870;SDS011;13689;48.590;7.752;2023-01-30T16:22:18;9.27;;;4.80;;
25870;SDS011;13689;48.590;7.752;2023-01-30T16:24:46;6.80;;;4.13;;
25870;SDS011;13689;48.590;7.752;2023-01-30T16:27:19;8.85;;;4.28;;
25870;SDS011;13689;48.590;7.752;2023-01-30T16:29:54;8.30;;;4.18;;
25870;SDS011;13689;48.590;7.752;2023-01-30T16:32:24;9.75;;;4.47;;
25870;SDS011;13689;48.590;7.752;2023-01-30T16:38:22;11.30;;;4.57;;
25870;SDS011;13689;48.590;7.752;2023-01-30T16:40:55;10.30;;;3.80;;
25870;SDS011;13689;48.590;7.752;2023-01-30T16:43:23;8.43;;;3.83;;
25870;SDS011;13689;48.590;7.752;2023-01-30T16:45:58;6.20;;;3.30;;
25870;SDS011;13689;48.590;7.752;2023-01-30T16:48:47;7.75;;;3.55;;
25870;SDS011;13689;48.590;7.752;2023-01-30T16:51:16;8.68;;;3.25;;
25870;SDS011;13689;48.590;7.752;2023-01-30T16:53:52;6.45;;;3.45;;
25870;SDS011;13689;48.590;7.752;2023-01-30T16:56:20;6.88;;;3.22;;
25870;SDS011;13689;48.590;7.752;2023-01-30T16:58:48;5.07;;;2.78;;
25870;SDS011;13689;48.590;7.752;2023-01-30T17:01:16;6.32;;;3.40;;
25870;SDS011;13689;48.590;7.752;2023-01-30T17:03:43;8.52;;;3.08;;
25870;SDS011;13689;48.590;7.752;2023-01-30T17:06:20;5.50;;;3.20;;
25870;SDS011;13689;48.590;7.752;2023-01-30T17:08:55;6.53;;;3.47;;
25870;SDS011;13689;48.590;7.752;2023-01-30T17:14:20;5.15;;;2.80;;
25870;SDS011;13689;48.590;7.752;2023-01-30T17:16:46;5.78;;;3.00;;
25870;SDS011;13689;48.590;7.752;2023-01-30T17:19:34;5.75;;;3.60;;
25870;SDS011;13689;48.590;7.752;2023-01-30T17:22:01;5.47;;;3.08;;
25870;SDS011;13689;48.590;7.752;2023-01-30T17:24:29;4.85;;;3.10;;
25870;SDS011;13689;48.590;7.752;2023-01-30T17:26:56;4.60;;;2.90;;
25870;SDS011;13689;48.590;7.752;2023-01-30T17:29:27;5.93;;;2.90;;
25870;SDS011;13689;48.590;7.752;2023-01-30T17:31:54;6.65;;;2.75;;
25870;SDS011;13689;48.590;7.752;2023-01-30T17:34:20;4.95;;;2.70;;
25870;SDS011;13689;48.590;7.752;2023-01-30T17:36:47;5.07;;;2.42;;
25870;SDS011;13689;48.590;7.752;2023-01-30T17:41:41;5.70;;;2.28;;
25870;SDS011;13689;48.590;7.752;2023-01-30T17:44:11;4.00;;;2.45;;
25870;SDS011;13689;48.590;7.752;2023-01-30T17:46:41;2.17;;;1.98;;
25870;SDS011;13689;48.590;7.752;2023-01-30T17:49:16;8.35;;;2.90;;
25870;SDS011;13689;48.590;7.752;2023-01-30T17:51:45;4.43;;;2.55;;
25870;SDS011;13689;48.590;7.752;2023-01-30T17:54:11;7.38;;;3.28;;
25870;SDS011;13689;48.590;7.752;2023-01-30T17:56:38;7.65;;;2.97;;
25870;SDS011;13689;48.590;7.752;2023-01-30T17:59:10;6.45;;;3.22;;
25870;SDS011;13689;48.590;7.752;2023-01-30T18:01:41;7.70;;;2.83;;
25870;SDS011;13689;48.590;7.752;2023-01-30T18:04:08;6.90;;;2.80;;
25870;SDS011;13689;48.590;7.752;2023-01-30T18:06:33;6.70;;;2.75;;
25870;SDS011;13689;48.590;7.752;2023-01-30T18:09:00;13.25;;;4.30;;